Las Vegas, Nevada
Traffic Map
Current Weather Conditions
Las Vegas, Nevada
Clear
Clear
43°
Feels Like: 40°
Wind Chill: 40° Ceiling: Unl
Heat Index: 43° Visibility: 10mi
Dew Point: 12° Wind: 5mph
Humidity: 28% Direction: 210° (SSW)
Pressure: 30.19in Gusts: 0mph
Raw Report DataKLAS 040856Z 21004KT 10SM CLR 06/M11 A3019 RMK AO2 SLP220 T00611111 50001
Traffic Incident Summary
Active as of:
Severity:
Category:
InformationThere was an issue retrieving the traffic information for this location. Please try a different location or try again shortly.
Advertisements
Track Severe Weather on mobile